Carrigaline, Ireland
Current Conditions -  °F | °C
As of 3:00 AM on Thursday 27 Nov 2014 (Local Time) from EICK Reporting Station
Broken Clouds Broken Clouds  
Wind Chill: 43°   Ceiling: 2900
Heat Index: 46°   Visibility: 6mi
Dew Point: 45°   Wind: 7mph
Humidity: 93%   Direction: 160°SSE
Pressure: 29.59"   Gusts: NA
Location:  51.81°N, 8.39°W
Report Text: EICK 270300Z 16006KT 9999 BKN029 08/07 Q1002 TEMPO 0400 BKN001
Loading
Personal Weather Stations






























Interactive Weather Map New forecast layout! Learn more

10-Day Weather Forecast

Advertisements
Track Severe Weather on mobile